sensor_id;sensor_type;location;lat;lon;timestamp;temperature;humidity
9403;DHT22;4741;49.834;10.740;2023-02-15T00:01:59;0.60;99.90
9403;DHT22;4741;49.834;10.740;2023-02-15T00:04:26;0.40;99.90
9403;DHT22;4741;49.834;10.740;2023-02-15T00:07:13;0.30;99.90
9403;DHT22;4741;49.834;10.740;2023-02-15T00:09:42;0.40;99.90
9403;DHT22;4741;49.834;10.740;2023-02-15T00:12:09;0.30;99.90
9403;DHT22;4741;49.834;10.740;2023-02-15T00:14:36;0.40;99.90
9403;DHT22;4741;49.834;10.740;2023-02-15T00:17:03;0.40;99.90
9403;DHT22;4741;49.834;10.740;2023-02-15T00:19:30;0.60;99.90
9403;DHT22;4741;49.834;10.740;2023-02-15T00:21:56;0.50;99.90
9403;DHT22;4741;49.834;10.740;2023-02-15T00:24:23;0.40;99.90
9403;DHT22;4741;49.834;10.740;2023-02-15T00:26:50;0.60;99.90
9403;DHT22;4741;49.834;10.740;2023-02-15T00:29:18;0.10;99.90
9403;DHT22;4741;49.834;10.740;2023-02-15T00:31:45;0.20;99.90
9403;DHT22;4741;49.834;10.740;2023-02-15T00:34:13;0.40;99.90
9403;DHT22;4741;49.834;10.740;2023-02-15T00:36:43;-0.10;99.90
9403;DHT22;4741;49.834;10.740;2023-02-15T00:39:10;-0.10;99.90
9403;DHT22;4741;49.834;10.740;2023-02-15T00:41:38;-0.10;99.90
9403;DHT22;4741;49.834;10.740;2023-02-15T00:44:05;-0.20;99.90
9403;DHT22;4741;49.834;10.740;2023-02-15T00:49:01;0.10;99.90
9403;DHT22;4741;49.834;10.740;2023-02-15T00:51:28;-0.40;99.90
9403;DHT22;4741;49.834;10.740;2023-02-15T00:53:55;-0.10;99.90
9403;DHT22;4741;49.834;10.740;2023-02-15T00:56:22;0.00;99.90
9403;DHT22;4741;49.834;10.740;2023-02-15T00:58:49;-0.20;99.90
9403;DHT22;4741;49.834;10.740;2023-02-15T01:01:16;0.00;99.90
9403;DHT22;4741;49.834;10.740;2023-02-15T01:03:45;-0.50;99.90
9403;DHT22;4741;49.834;10.740;2023-02-15T01:08:43;-0.10;99.90
9403;DHT22;4741;49.834;10.740;2023-02-15T01:11:12;-0.10;99.90
9403;DHT22;4741;49.834;10.740;2023-02-15T01:13:41;-0.10;99.90
9403;DHT22;4741;49.834;10.740;2023-02-15T01:16:08;0.00;99.90
9403;DHT22;4741;49.834;10.740;2023-02-15T01:18:35;-0.40;99.90
9403;DHT22;4741;49.834;10.740;2023-02-15T01:21:09;-0.40;99.90
9403;DHT22;4741;49.834;10.740;2023-02-15T01:23:37;-0.10;99.90
9403;DHT22;4741;49.834;10.740;2023-02-15T01:26:04;-0.30;99.90
9403;DHT22;4741;49.834;10.740;2023-02-15T01:28:31;-0.30;99.90
9403;DHT22;4741;49.834;10.740;2023-02-15T01:30:58;-0.50;99.90
9403;DHT22;4741;49.834;10.740;2023-02-15T01:33:25;-0.40;99.90
9403;DHT22;4741;49.834;10.740;2023-02-15T01:35:56;-0.30;99.90
9403;DHT22;4741;49.834;10.740;2023-02-15T01:38:24;-0.80;99.90
9403;DHT22;4741;49.834;10.740;2023-02-15T01:40:51;-0.30;99.90
9403;DHT22;4741;49.834;10.740;2023-02-15T01:43:19;-0.30;99.90
9403;DHT22;4741;49.834;10.740;2023-02-15T01:45:46;-0.30;99.90
9403;DHT22;4741;49.834;10.740;2023-02-15T01:48:25;-0.40;99.90
9403;DHT22;4741;49.834;10.740;2023-02-15T01:50:54;-0.20;99.90
9403;DHT22;4741;49.834;10.740;2023-02-15T01:56:05;-0.10;99.90
9403;DHT22;4741;49.834;10.740;2023-02-15T01:58:36;0.40;99.90
9403;DHT22;4741;49.834;10.740;2023-02-15T02:01:03;-0.30;99.90
9403;DHT22;4741;49.834;10.740;2023-02-15T02:03:40;1.40;99.90
9403;DHT22;4741;49.834;10.740;2023-02-15T02:06:15;-0.20;99.90
9403;DHT22;4741;49.834;10.740;2023-02-15T02:08:42;-0.10;99.90
9403;DHT22;4741;49.834;10.740;2023-02-15T02:11:10;-0.20;99.90
9403;DHT22;4741;49.834;10.740;2023-02-15T02:13:39;-0.30;99.90
9403;DHT22;4741;49.834;10.740;2023-02-15T02:16:14;-0.50;99.90
9403;DHT22;4741;49.834;10.740;2023-02-15T02:24:42;-0.20;99.90
9403;DHT22;4741;49.834;10.740;2023-02-15T02:32:31;-0.50;99.90
9403;DHT22;4741;49.834;10.740;2023-02-15T02:38:03;-0.20;99.90
9403;DHT22;4741;49.834;10.740;2023-02-15T02:43:18;-0.10;99.90
9403;DHT22;4741;49.834;10.740;2023-02-15T02:45:57;-0.20;99.90
9403;DHT22;4741;49.834;10.740;2023-02-15T02:48:28;-0.50;99.90
9403;DHT22;4741;49.834;10.740;2023-02-15T02:50:58;-0.20;99.90
9403;DHT22;4741;49.834;10.740;2023-02-15T02:53:26;-0.20;99.90
9403;DHT22;4741;49.834;10.740;2023-02-15T02:56:11;-0.40;99.90
9403;DHT22;4741;49.834;10.740;2023-02-15T02:58:52;-0.10;99.90
9403;DHT22;4741;49.834;10.740;2023-02-15T03:01:44;-0.20;99.90
9403;DHT22;4741;49.834;10.740;2023-02-15T03:06:46;-0.40;99.90
9403;DHT22;4741;49.834;10.740;2023-02-15T03:09:31;-0.10;99.90
9403;DHT22;4741;49.834;10.740;2023-02-15T03:12:12;-0.40;99.90
9403;DHT22;4741;49.834;10.740;2023-02-15T03:14:40;-0.50;99.90
9403;DHT22;4741;49.834;10.740;2023-02-15T03:17:09;-0.40;99.90
9403;DHT22;4741;49.834;10.740;2023-02-15T03:19:39;-0.70;99.90
9403;DHT22;4741;49.834;10.740;2023-02-15T03:22:15;-0.90;99.90
9403;DHT22;4741;49.834;10.740;2023-02-15T03:25:02;-0.50;99.90
9403;DHT22;4741;49.834;10.740;2023-02-15T03:27:40;-0.40;99.90
9403;DHT22;4741;49.834;10.740;2023-02-15T03:30:13;-1.20;99.90
9403;DHT22;4741;49.834;10.740;2023-02-15T03:32:44;-1.00;99.90
9403;DHT22;4741;49.834;10.740;2023-02-15T03:35:13;-1.00;99.90
9403;DHT22;4741;49.834;10.740;2023-02-15T03:37:59;-0.90;99.90
9403;DHT22;4741;49.834;10.740;2023-02-15T03:46:21;-0.70;99.90
9403;DHT22;4741;49.834;10.740;2023-02-15T03:48:56;-0.70;99.90
9403;DHT22;4741;49.834;10.740;2023-02-15T03:51:33;-0.80;99.90
9403;DHT22;4741;49.834;10.740;2023-02-15T03:54:06;-0.70;99.90
9403;DHT22;4741;49.834;10.740;2023-02-15T03:57:01;-0.80;99.90
9403;DHT22;4741;49.834;10.740;2023-02-15T03:59:48;-0.70;99.90
9403;DHT22;4741;49.834;10.740;2023-02-15T04:02:38;-0.80;99.90
9403;DHT22;4741;49.834;10.740;2023-02-15T04:05:10;-0.60;99.90
9403;DHT22;4741;49.834;10.740;2023-02-15T04:07:37;-0.60;99.90
9403;DHT22;4741;49.834;10.740;2023-02-15T04:10:04;-1.40;99.90
9403;DHT22;4741;49.834;10.740;2023-02-15T04:12:50;-0.60;99.90
9403;DHT22;4741;49.834;10.740;2023-02-15T04:15:17;0.50;99.90
9403;DHT22;4741;49.834;10.740;2023-02-15T04:18:03;-0.80;99.90
9403;DHT22;4741;49.834;10.740;2023-02-15T04:20:30;-0.70;99.90
9403;DHT22;4741;49.834;10.740;2023-02-15T04:23:15;-0.90;99.90
9403;DHT22;4741;49.834;10.740;2023-02-15T04:26:04;-0.70;99.90
9403;DHT22;4741;49.834;10.740;2023-02-15T04:28:31;-0.70;99.90
9403;DHT22;4741;49.834;10.740;2023-02-15T04:30:58;-0.80;99.90
9403;DHT22;4741;49.834;10.740;2023-02-15T04:33:25;-0.90;99.90
9403;DHT22;4741;49.834;10.740;2023-02-15T04:35:51;-0.80;99.90
9403;DHT22;4741;49.834;10.740;2023-02-15T04:38:18;-1.00;99.90
9403;DHT22;4741;49.834;10.740;2023-02-15T04:40:48;-1.10;99.90
9403;DHT22;4741;49.834;10.740;2023-02-15T04:43:16;-1.00;99.90
9403;DHT22;4741;49.834;10.740;2023-02-15T04:45:47;-0.90;99.90
9403;DHT22;4741;49.834;10.740;2023-02-15T04:48:17;-0.20;99.90
9403;DHT22;4741;49.834;10.740;2023-02-15T04:50:44;-0.80;99.90
9403;DHT22;4741;49.834;10.740;2023-02-15T04:53:11;-1.00;99.90
9403;DHT22;4741;49.834;10.740;2023-02-15T04:55:38;-1.00;99.90
9403;DHT22;4741;49.834;10.740;2023-02-15T04:58:05;-1.30;99.90
9403;DHT22;4741;49.834;10.740;2023-02-15T05:00:32;-1.20;99.90
9403;DHT22;4741;49.834;10.740;2023-02-15T05:02:59;-0.90;99.90
9403;DHT22;4741;49.834;10.740;2023-02-15T05:05:26;0.80;99.90
9403;DHT22;4741;49.834;10.740;2023-02-15T05:07:53;-1.50;99.90
9403;DHT22;4741;49.834;10.740;2023-02-15T05:10:20;-1.30;99.90
9403;DHT22;4741;49.834;10.740;2023-02-15T05:12:47;-0.20;99.90
9403;DHT22;4741;49.834;10.740;2023-02-15T05:15:14;-1.30;99.90
9403;DHT22;4741;49.834;10.740;2023-02-15T05:17:40;-1.20;99.90
9403;DHT22;4741;49.834;10.740;2023-02-15T05:20:07;-1.10;99.90
9403;DHT22;4741;49.834;10.740;2023-02-15T05:22:35;-0.80;99.90
9403;DHT22;4741;49.834;10.740;2023-02-15T05:25:02;-1.10;99.90
9403;DHT22;4741;49.834;10.740;2023-02-15T05:27:47;-1.30;99.90
9403;DHT22;4741;49.834;10.740;2023-02-15T05:30:32;-0.70;99.90
9403;DHT22;4741;49.834;10.740;2023-02-15T05:32:59;-1.10;99.90
9403;DHT22;4741;49.834;10.740;2023-02-15T05:35:26;-1.20;99.90
9403;DHT22;4741;49.834;10.740;2023-02-15T05:37:53;-0.80;99.90
9403;DHT22;4741;49.834;10.740;2023-02-15T05:40:19;-1.00;99.90
9403;DHT22;4741;49.834;10.740;2023-02-15T05:42:46;-1.30;99.90
9403;DHT22;4741;49.834;10.740;2023-02-15T05:45:13;-1.20;99.90
9403;DHT22;4741;49.834;10.740;2023-02-15T05:47:40;0.00;99.90
9403;DHT22;4741;49.834;10.740;2023-02-15T05:50:07;-0.90;99.90
9403;DHT22;4741;49.834;10.740;2023-02-15T05:52:34;-0.90;99.90
9403;DHT22;4741;49.834;10.740;2023-02-15T05:55:01;-1.10;99.90
9403;DHT22;4741;49.834;10.740;2023-02-15T05:57:29;-0.70;99.90
9403;DHT22;4741;49.834;10.740;2023-02-15T05:59:56;-0.40;99.90
9403;DHT22;4741;49.834;10.740;2023-02-15T06:02:23;-1.00;99.90
9403;DHT22;4741;49.834;10.740;2023-02-15T06:04:49;-1.30;99.90
9403;DHT22;4741;49.834;10.740;2023-02-15T06:07:16;-1.00;99.90
9403;DHT22;4741;49.834;10.740;2023-02-15T06:09:43;-1.20;99.90
9403;DHT22;4741;49.834;10.740;2023-02-15T06:12:10;-1.00;99.90
9403;DHT22;4741;49.834;10.740;2023-02-15T06:14:36;-1.10;99.90
9403;DHT22;4741;49.834;10.740;2023-02-15T06:17:03;-0.50;99.90
9403;DHT22;4741;49.834;10.740;2023-02-15T06:19:30;-1.10;99.90
9403;DHT22;4741;49.834;10.740;2023-02-15T06:21:57;-0.30;99.90
9403;DHT22;4741;49.834;10.740;2023-02-15T06:24:23;-0.40;99.90
9403;DHT22;4741;49.834;10.740;2023-02-15T06:26:50;-0.90;99.90
9403;DHT22;4741;49.834;10.740;2023-02-15T06:29:17;-1.10;99.90
9403;DHT22;4741;49.834;10.740;2023-02-15T06:31:44;-0.30;99.90
9403;DHT22;4741;49.834;10.740;2023-02-15T06:34:11;-1.00;99.90
9403;DHT22;4741;49.834;10.740;2023-02-15T06:36:38;-0.60;99.90
9403;DHT22;4741;49.834;10.740;2023-02-15T06:39:05;-1.10;99.90
9403;DHT22;4741;49.834;10.740;2023-02-15T06:41:31;-0.60;99.90
9403;DHT22;4741;49.834;10.740;2023-02-15T06:43:58;-1.20;99.90
9403;DHT22;4741;49.834;10.740;2023-02-15T06:46:25;-1.10;99.90
9403;DHT22;4741;49.834;10.740;2023-02-15T06:48:52;-1.60;99.90
9403;DHT22;4741;49.834;10.740;2023-02-15T06:51:18;-1.40;99.90
9403;DHT22;4741;49.834;10.740;2023-02-15T06:53:45;-1.00;99.90
9403;DHT22;4741;49.834;10.740;2023-02-15T06:56:12;-1.40;99.90
9403;DHT22;4741;49.834;10.740;2023-02-15T06:58:39;-1.20;99.90
9403;DHT22;4741;49.834;10.740;2023-02-15T07:01:07;-1.20;99.90
9403;DHT22;4741;49.834;10.740;2023-02-15T07:06:03;-1.20;99.90
9403;DHT22;4741;49.834;10.740;2023-02-15T07:08:35;-1.20;99.90
9403;DHT22;4741;49.834;10.740;2023-02-15T07:11:02;-0.70;99.90
9403;DHT22;4741;49.834;10.740;2023-02-15T07:13:49;-0.60;99.90
9403;DHT22;4741;49.834;10.740;2023-02-15T07:16:16;-1.20;99.90
9403;DHT22;4741;49.834;10.740;2023-02-15T07:18:42;-0.80;99.90
9403;DHT22;4741;49.834;10.740;2023-02-15T07:21:09;-1.10;99.90
9403;DHT22;4741;49.834;10.740;2023-02-15T07:23:36;-0.90;99.90
9403;DHT22;4741;49.834;10.740;2023-02-15T07:26:05;-1.50;99.90
9403;DHT22;4741;49.834;10.740;2023-02-15T07:28:33;-0.30;99.90
9403;DHT22;4741;49.834;10.740;2023-02-15T07:31:01;-1.50;99.90
9403;DHT22;4741;49.834;10.740;2023-02-15T07:33:32;-0.40;99.90
9403;DHT22;4741;49.834;10.740;2023-02-15T07:36:01;-1.00;99.90
9403;DHT22;4741;49.834;10.740;2023-02-15T07:38:31;-1.10;99.90
9403;DHT22;4741;49.834;10.740;2023-02-15T07:41:00;-0.90;99.90
9403;DHT22;4741;49.834;10.740;2023-02-15T07:45:59;-1.00;99.90
9403;DHT22;4741;49.834;10.740;2023-02-15T07:48:28;-1.00;99.90
9403;DHT22;4741;49.834;10.740;2023-02-15T07:51:07;-1.50;99.90
9403;DHT22;4741;49.834;10.740;2023-02-15T07:53:41;-0.70;99.90
9403;DHT22;4741;49.834;10.740;2023-02-15T07:56:09;-1.50;99.90
9403;DHT22;4741;49.834;10.740;2023-02-15T07:58:53;-1.10;99.90
9403;DHT22;4741;49.834;10.740;2023-02-15T08:01:25;-0.80;99.90
9403;DHT22;4741;49.834;10.740;2023-02-15T08:03:54;-1.00;99.90
9403;DHT22;4741;49.834;10.740;2023-02-15T08:06:23;-1.20;99.90
9403;DHT22;4741;49.834;10.740;2023-02-15T08:08:54;0.70;99.90
9403;DHT22;4741;49.834;10.740;2023-02-15T08:11:22;0.20;99.90
9403;DHT22;4741;49.834;10.740;2023-02-15T08:14:07;-1.00;99.90
9403;DHT22;4741;49.834;10.740;2023-02-15T08:16:37;-0.80;99.90
9403;DHT22;4741;49.834;10.740;2023-02-15T08:19:39;-1.10;99.90
9403;DHT22;4741;49.834;10.740;2023-02-15T08:22:36;-0.90;99.90
9403;DHT22;4741;49.834;10.740;2023-02-15T08:25:10;-0.60;99.90
9403;DHT22;4741;49.834;10.740;2023-02-15T08:30:04;-0.80;99.90
9403;DHT22;4741;49.834;10.740;2023-02-15T08:32:32;-0.60;99.90
9403;DHT22;4741;49.834;10.740;2023-02-15T08:34:59;-0.80;99.90
9403;DHT22;4741;49.834;10.740;2023-02-15T08:37:25;-0.90;99.90
9403;DHT22;4741;49.834;10.740;2023-02-15T08:39:52;-0.80;99.90
9403;DHT22;4741;49.834;10.740;2023-02-15T08:42:19;-1.10;99.90
9403;DHT22;4741;49.834;10.740;2023-02-15T08:44:47;-0.90;99.90
9403;DHT22;4741;49.834;10.740;2023-02-15T08:47:16;-1.40;99.90
9403;DHT22;4741;49.834;10.740;2023-02-15T08:49:43;-1.00;99.90
9403;DHT22;4741;49.834;10.740;2023-02-15T08:52:10;-0.90;99.90
9403;DHT22;4741;49.834;10.740;2023-02-15T08:54:37;-1.00;99.90
9403;DHT22;4741;49.834;10.740;2023-02-15T08:57:03;-0.80;99.90
9403;DHT22;4741;49.834;10.740;2023-02-15T08:59:30;-1.00;99.90
9403;DHT22;4741;49.834;10.740;2023-02-15T09:01:57;-0.90;99.90
9403;DHT22;4741;49.834;10.740;2023-02-15T09:04:24;-1.00;99.90
9403;DHT22;4741;49.834;10.740;2023-02-15T09:06:50;-1.00;99.90
9403;DHT22;4741;49.834;10.740;2023-02-15T09:09:18;-0.80;99.90
9403;DHT22;4741;49.834;10.740;2023-02-15T09:11:46;-0.80;99.90
9403;DHT22;4741;49.834;10.740;2023-02-15T09:14:20;-0.90;99.90
9403;DHT22;4741;49.834;10.740;2023-02-15T09:16:48;-0.70;99.90
9403;DHT22;4741;49.834;10.740;2023-02-15T09:19:17;-0.90;99.90
9403;DHT22;4741;49.834;10.740;2023-02-15T09:21:46;-0.70;99.90
9403;DHT22;4741;49.834;10.740;2023-02-15T09:24:14;-0.60;99.90
9403;DHT22;4741;49.834;10.740;2023-02-15T09:26:43;0.10;99.90
9403;DHT22;4741;49.834;10.740;2023-02-15T09:29:12;-0.60;99.90
9403;DHT22;4741;49.834;10.740;2023-02-15T09:31:41;-0.60;99.90
9403;DHT22;4741;49.834;10.740;2023-02-15T09:34:14;-0.20;99.90
9403;DHT22;4741;49.834;10.740;2023-02-15T09:36:43;-0.30;99.90
9403;DHT22;4741;49.834;10.740;2023-02-15T09:39:12;-0.40;99.90
9403;DHT22;4741;49.834;10.740;2023-02-15T09:41:48;-0.50;99.90
9403;DHT22;4741;49.834;10.740;2023-02-15T09:47:22;-0.30;99.90
9403;DHT22;4741;49.834;10.740;2023-02-15T10:04:35;-0.30;99.90
9403;DHT22;4741;49.834;10.740;2023-02-15T10:14:49;0.00;99.90
9403;DHT22;4741;49.834;10.740;2023-02-15T10:29:17;0.00;99.90
9403;DHT22;4741;49.834;10.740;2023-02-15T10:40:54;0.10;99.90
9403;DHT22;4741;49.834;10.740;2023-02-15T10:43:55;0.20;99.90
9403;DHT22;4741;49.834;10.740;2023-02-15T10:49:27;0.20;99.90
9403;DHT22;4741;49.834;10.740;2023-02-15T10:52:25;0.30;99.90
9403;DHT22;4741;49.834;10.740;2023-02-15T10:55:08;0.20;99.90
9403;DHT22;4741;49.834;10.740;2023-02-15T10:57:47;0.20;99.90
9403;DHT22;4741;49.834;10.740;2023-02-15T11:00:41;0.20;99.90
9403;DHT22;4741;49.834;10.740;2023-02-15T11:03:15;0.20;99.90
9403;DHT22;4741;49.834;10.740;2023-02-15T11:05:53;0.20;99.90
9403;DHT22;4741;49.834;10.740;2023-02-15T11:08:24;0.20;99.90
9403;DHT22;4741;49.834;10.740;2023-02-15T11:10:54;0.30;99.90
9403;DHT22;4741;49.834;10.740;2023-02-15T11:13:26;0.30;99.90
9403;DHT22;4741;49.834;10.740;2023-02-15T11:16:00;0.30;99.90
9403;DHT22;4741;49.834;10.740;2023-02-15T11:18:51;0.20;99.90
9403;DHT22;4741;49.834;10.740;2023-02-15T11:21:31;0.20;99.90
9403;DHT22;4741;49.834;10.740;2023-02-15T11:24:13;0.20;99.90
9403;DHT22;4741;49.834;10.740;2023-02-15T11:26:44;0.30;99.90
9403;DHT22;4741;49.834;10.740;2023-02-15T11:29:25;0.30;99.90
9403;DHT22;4741;49.834;10.740;2023-02-15T11:31:59;0.30;99.90
9403;DHT22;4741;49.834;10.740;2023-02-15T11:34:31;0.30;99.90
9403;DHT22;4741;49.834;10.740;2023-02-15T11:37:10;0.30;99.90
9403;DHT22;4741;49.834;10.740;2023-02-15T11:39:42;0.40;99.90
9403;DHT22;4741;49.834;10.740;2023-02-15T11:42:14;0.50;99.90
9403;DHT22;4741;49.834;10.740;2023-02-15T11:44:56;0.40;99.90
9403;DHT22;4741;49.834;10.740;2023-02-15T11:47:30;0.50;99.90
9403;DHT22;4741;49.834;10.740;2023-02-15T11:49:57;0.50;99.90
9403;DHT22;4741;49.834;10.740;2023-02-15T11:52:24;0.60;99.90
9403;DHT22;4741;49.834;10.740;2023-02-15T11:54:51;0.50;99.90
9403;DHT22;4741;49.834;10.740;2023-02-15T11:57:38;0.40;99.90
9403;DHT22;4741;49.834;10.740;2023-02-15T12:02:44;0.50;99.90
9403;DHT22;4741;49.834;10.740;2023-02-15T12:05:14;0.60;99.90
9403;DHT22;4741;49.834;10.740;2023-02-15T12:08:01;0.50;99.90
9403;DHT22;4741;49.834;10.740;2023-02-15T12:11:37;0.70;99.90
9403;DHT22;4741;49.834;10.740;2023-02-15T12:13:57;0.70;99.90
9403;DHT22;4741;49.834;10.740;2023-02-15T12:16:31;0.70;99.90
9403;DHT22;4741;49.834;10.740;2023-02-15T12:19:10;0.80;99.90
9403;DHT22;4741;49.834;10.740;2023-02-15T12:21:48;0.80;99.90
9403;DHT22;4741;49.834;10.740;2023-02-15T12:24:21;0.90;99.90
9403;DHT22;4741;49.834;10.740;2023-02-15T12:26:58;0.90;99.90
9403;DHT22;4741;49.834;10.740;2023-02-15T12:29:29;0.90;99.90
9403;DHT22;4741;49.834;10.740;2023-02-15T12:32:00;0.90;99.90
9403;DHT22;4741;49.834;10.740;2023-02-15T12:34:46;0.80;99.90
9403;DHT22;4741;49.834;10.740;2023-02-15T12:37:15;0.90;99.90
9403;DHT22;4741;49.834;10.740;2023-02-15T12:39:50;0.80;99.90
9403;DHT22;4741;49.834;10.740;2023-02-15T12:42:26;0.90;99.90
9403;DHT22;4741;49.834;10.740;2023-02-15T12:47:27;0.80;99.90
9403;DHT22;4741;49.834;10.740;2023-02-15T12:50:14;0.90;99.90
9403;DHT22;4741;49.834;10.740;2023-02-15T12:52:49;0.70;99.90
9403;DHT22;4741;49.834;10.740;2023-02-15T12:55:24;0.60;99.90
9403;DHT22;4741;49.834;10.740;2023-02-15T12:58:29;0.70;99.90
9403;DHT22;4741;49.834;10.740;2023-02-15T13:06:28;1.10;99.90
9403;DHT22;4741;49.834;10.740;2023-02-15T13:08:58;1.00;99.90
9403;DHT22;4741;49.834;10.740;2023-02-15T13:11:43;1.30;99.90
9403;DHT22;4741;49.834;10.740;2023-02-15T13:17:02;1.10;99.90
9403;DHT22;4741;49.834;10.740;2023-02-15T13:19:39;0.90;99.90
9403;DHT22;4741;49.834;10.740;2023-02-15T13:22:31;1.10;99.90
9403;DHT22;4741;49.834;10.740;2023-02-15T13:25:04;1.00;99.90
9403;DHT22;4741;49.834;10.740;2023-02-15T13:27:39;1.00;99.90
9403;DHT22;4741;49.834;10.740;2023-02-15T13:30:28;0.80;99.90
9403;DHT22;4741;49.834;10.740;2023-02-15T13:33:02;0.90;99.90
9403;DHT22;4741;49.834;10.740;2023-02-15T13:35:37;1.00;99.90
9403;DHT22;4741;49.834;10.740;2023-02-15T13:38:14;0.80;99.90
9403;DHT22;4741;49.834;10.740;2023-02-15T13:41:04;0.70;99.90
9403;DHT22;4741;49.834;10.740;2023-02-15T13:43:53;0.90;99.90
9403;DHT22;4741;49.834;10.740;2023-02-15T13:46:39;0.90;99.90
9403;DHT22;4741;49.834;10.740;2023-02-15T13:52:17;0.90;99.90
9403;DHT22;4741;49.834;10.740;2023-02-15T13:54:58;0.90;99.90
9403;DHT22;4741;49.834;10.740;2023-02-15T14:09:30;0.90;99.90
9403;DHT22;4741;49.834;10.740;2023-02-15T14:12:29;1.00;99.90
9403;DHT22;4741;49.834;10.740;2023-02-15T14:23:43;1.10;99.90
9403;DHT22;4741;49.834;10.740;2023-02-15T14:29:28;1.00;99.90
9403;DHT22;4741;49.834;10.740;2023-02-15T14:32:26;1.00;99.90
9403;DHT22;4741;49.834;10.740;2023-02-15T14:43:12;1.10;99.90
9403;DHT22;4741;49.834;10.740;2023-02-15T14:45:55;1.20;99.90
9403;DHT22;4741;49.834;10.740;2023-02-15T14:48:30;1.30;99.90
9403;DHT22;4741;49.834;10.740;2023-02-15T14:50:59;1.20;99.90
9403;DHT22;4741;49.834;10.740;2023-02-15T14:58:37;0.90;99.90
9403;DHT22;4741;49.834;10.740;2023-02-15T15:01:09;0.90;99.90
9403;DHT22;4741;49.834;10.740;2023-02-15T15:03:41;0.80;99.90
9403;DHT22;4741;49.834;10.740;2023-02-15T15:06:34;0.80;99.90
9403;DHT22;4741;49.834;10.740;2023-02-15T15:11:48;0.80;99.90
9403;DHT22;4741;49.834;10.740;2023-02-15T15:17:00;1.00;99.90
9403;DHT22;4741;49.834;10.740;2023-02-15T15:22:21;1.10;99.90
9403;DHT22;4741;49.834;10.740;2023-02-15T15:32:59;1.00;99.90
9403;DHT22;4741;49.834;10.740;2023-02-15T15:39:04;1.00;99.90
9403;DHT22;4741;49.834;10.740;2023-02-15T15:41:57;1.10;99.90
9403;DHT22;4741;49.834;10.740;2023-02-15T15:49:59;0.90;99.90
9403;DHT22;4741;49.834;10.740;2023-02-15T15:52:26;1.00;99.90
9403;DHT22;4741;49.834;10.740;2023-02-15T15:54:56;0.90;99.90
9403;DHT22;4741;49.834;10.740;2023-02-15T15:57:30;0.90;99.90
9403;DHT22;4741;49.834;10.740;2023-02-15T16:00:00;0.90;99.90
9403;DHT22;4741;49.834;10.740;2023-02-15T16:02:28;0.80;99.90
9403;DHT22;4741;49.834;10.740;2023-02-15T16:05:05;0.80;99.90
9403;DHT22;4741;49.834;10.740;2023-02-15T16:07:34;0.80;99.90
9403;DHT22;4741;49.834;10.740;2023-02-15T16:10:05;0.80;99.90
9403;DHT22;4741;49.834;10.740;2023-02-15T16:12:34;0.80;99.90
9403;DHT22;4741;49.834;10.740;2023-02-15T16:15:18;0.70;99.90
9403;DHT22;4741;49.834;10.740;2023-02-15T16:17:47;0.60;99.90
9403;DHT22;4741;49.834;10.740;2023-02-15T16:22:53;0.50;99.90
9403;DHT22;4741;49.834;10.740;2023-02-15T16:25:37;0.40;99.90
9403;DHT22;4741;49.834;10.740;2023-02-15T16:28:10;0.40;99.90
9403;DHT22;4741;49.834;10.740;2023-02-15T16:30:40;0.60;99.90
9403;DHT22;4741;49.834;10.740;2023-02-15T16:33:14;0.90;99.90
9403;DHT22;4741;49.834;10.740;2023-02-15T16:35:53;0.30;99.90
9403;DHT22;4741;49.834;10.740;2023-02-15T16:38:28;0.30;99.90
9403;DHT22;4741;49.834;10.740;2023-02-15T16:41:05;0.30;99.90
9403;DHT22;4741;49.834;10.740;2023-02-15T16:43:37;1.00;99.90
9403;DHT22;4741;49.834;10.740;2023-02-15T16:48:57;0.30;99.90
9403;DHT22;4741;49.834;10.740;2023-02-15T16:51:28;0.10;99.90
9403;DHT22;4741;49.834;10.740;2023-02-15T16:54:00;0.00;99.90
9403;DHT22;4741;49.834;10.740;2023-02-15T16:56:38;0.00;99.90
9403;DHT22;4741;49.834;10.740;2023-02-15T16:59:15;0.70;99.90
9403;DHT22;4741;49.834;10.740;2023-02-15T17:02:04;0.10;99.90
9403;DHT22;4741;49.834;10.740;2023-02-15T17:04:37;0.20;99.90
9403;DHT22;4741;49.834;10.740;2023-02-15T17:07:15;0.20;99.90
9403;DHT22;4741;49.834;10.740;2023-02-15T17:09:53;0.20;99.90
9403;DHT22;4741;49.834;10.740;2023-02-15T17:15:31;0.20;99.90
9403;DHT22;4741;49.834;10.740;2023-02-15T17:18:08;0.10;99.90
9403;DHT22;4741;49.834;10.740;2023-02-15T17:20:37;0.10;99.90
9403;DHT22;4741;49.834;10.740;2023-02-15T17:26:23;0.20;99.90
9403;DHT22;4741;49.834;10.740;2023-02-15T17:29:26;0.30;99.90
9403;DHT22;4741;49.834;10.740;2023-02-15T17:32:17;0.10;99.90
9403;DHT22;4741;49.834;10.740;2023-02-15T17:35:22;0.10;99.90
9403;DHT22;4741;49.834;10.740;2023-02-15T17:38:22;0.00;99.90
9403;DHT22;4741;49.834;10.740;2023-02-15T17:42:01;0.00;99.90
9403;DHT22;4741;49.834;10.740;2023-02-15T17:44:35;0.10;99.90
9403;DHT22;4741;49.834;10.740;2023-02-15T17:47:14;0.20;99.90
9403;DHT22;4741;49.834;10.740;2023-02-15T17:50:45;0.20;99.90
9403;DHT22;4741;49.834;10.740;2023-02-15T17:57:41;0.00;99.90
9403;DHT22;4741;49.834;10.740;2023-02-15T18:00:25;0.00;99.90
9403;DHT22;4741;49.834;10.740;2023-02-15T18:03:20;0.00;99.90
9403;DHT22;4741;49.834;10.740;2023-02-15T18:09:57;-0.10;99.90
9403;DHT22;4741;49.834;10.740;2023-02-15T18:16:33;0.00;99.90
9403;DHT22;4741;49.834;10.740;2023-02-15T18:19:03;0.00;99.90
9403;DHT22;4741;49.834;10.740;2023-02-15T18:21:39;0.00;99.90
9403;DHT22;4741;49.834;10.740;2023-02-15T18:24:18;0.00;99.90
9403;DHT22;4741;49.834;10.740;2023-02-15T18:26:51;-0.10;99.90
9403;DHT22;4741;49.834;10.740;2023-02-15T18:29:24;-0.10;99.90
9403;DHT22;4741;49.834;10.740;2023-02-15T18:31:55;-0.10;99.90
9403;DHT22;4741;49.834;10.740;2023-02-15T18:35:03;-0.10;99.90
9403;DHT22;4741;49.834;10.740;2023-02-15T18:38:09;-0.10;99.90
9403;DHT22;4741;49.834;10.740;2023-02-15T18:41:25;-0.10;99.90
9403;DHT22;4741;49.834;10.740;2023-02-15T18:44:01;-0.10;99.90
9403;DHT22;4741;49.834;10.740;2023-02-15T18:46:28;-0.20;99.90
9403;DHT22;4741;49.834;10.740;2023-02-15T18:48:56;-0.30;99.90
9403;DHT22;4741;49.834;10.740;2023-02-15T18:51:43;-0.20;99.90
9403;DHT22;4741;49.834;10.740;2023-02-15T18:54:19;-0.20;99.90
9403;DHT22;4741;49.834;10.740;2023-02-15T18:56:53;-0.30;99.90
9403;DHT22;4741;49.834;10.740;2023-02-15T18:59:23;-0.30;99.90
9403;DHT22;4741;49.834;10.740;2023-02-15T19:02:08;-0.40;99.90
9403;DHT22;4741;49.834;10.740;2023-02-15T19:05:24;-0.30;99.90
9403;DHT22;4741;49.834;10.740;2023-02-15T19:09:05;-0.30;99.90
9403;DHT22;4741;49.834;10.740;2023-02-15T19:16:13;-0.30;99.90
9403;DHT22;4741;49.834;10.740;2023-02-15T19:24:17;-0.30;99.90
9403;DHT22;4741;49.834;10.740;2023-02-15T19:31:08;-0.30;99.90
9403;DHT22;4741;49.834;10.740;2023-02-15T19:35:00;-0.40;99.90
9403;DHT22;4741;49.834;10.740;2023-02-15T19:38:03;-0.40;99.90
9403;DHT22;4741;49.834;10.740;2023-02-15T19:41:15;-0.30;99.90
9403;DHT22;4741;49.834;10.740;2023-02-15T19:44:36;-0.40;99.90
9403;DHT22;4741;49.834;10.740;2023-02-15T19:48:01;-0.40;99.90
9403;DHT22;4741;49.834;10.740;2023-02-15T19:51:13;-0.40;99.90
9403;DHT22;4741;49.834;10.740;2023-02-15T19:54:32;-0.50;99.90
9403;DHT22;4741;49.834;10.740;2023-02-15T19:57:56;-0.60;99.90
9403;DHT22;4741;49.834;10.740;2023-02-15T20:01:22;-0.50;99.90
9403;DHT22;4741;49.834;10.740;2023-02-15T20:04:24;-0.60;99.90
9403;DHT22;4741;49.834;10.740;2023-02-15T20:08:03;-0.50;99.90
9403;DHT22;4741;49.834;10.740;2023-02-15T20:21:50;-0.80;99.90
9403;DHT22;4741;49.834;10.740;2023-02-15T20:25:20;-0.80;99.90